Time;durP1;ratioP1;P1;durP2;ratioP2;P2;SDS_P1;SDS_P2;PMS_P1;PMS_P2;Temp;Humidity;BMP_temperature;BMP_pressure;BME280_temperature;BME280_humidity;BME280_pressure;Samples;Min_cycle;Max_cycle;Signal;HPM_P1;HPM_P2
2023/01/30 02:02:57;;;;;;;23.40;12.30;;;;;;;0.84;100.00;100816.64;107681;1286;548227;-70
2023/01/30 02:05:28;;;;;;;26.30;12.90;;;;;;;4.03;99.94;100793.94;107931;1289;21990;-69
2023/01/30 02:08:21;;;;;;;16.80;9.50;;;;;;;4.51;96.29;100788.48;107859;1290;23813;-73
2023/01/30 02:11:02;;;;;;;16.70;9.60;;;;;;;4.71;93.16;100785.04;107821;1290;22012;-70
2023/01/30 02:13:28;;;;;;;17.20;10.00;;;;;;;4.87;91.23;100780.27;107816;1289;21994;-70
2023/01/30 02:15:56;;;;;;;13.70;7.60;;;;;;;5.01;89.35;100778.27;107889;1286;277099;-70
2023/01/30 02:18:22;;;;;;;13.90;8.30;;;;;;;5.11;88.62;100772.16;108202;1287;23055;-69
2023/01/30 02:20:48;;;;;;;13.60;8.40;;;;;;;5.21;87.28;100773.55;108273;1279;23742;-70
2023/01/30 02:23:45;;;;;;;15.60;7.50;;;;;;;5.28;86.73;100778.35;108281;1286;21989;-70
2023/01/30 02:26:20;;;;;;;12.40;7.20;;;;;;;5.34;86.24;100777.05;108204;1286;21992;-70
2023/01/30 02:29:04;;;;;;;12.60;7.40;;;;;;;5.41;84.54;100773.84;108213;1286;22028;-70
2023/01/30 02:31:44;;;;;;;15.40;7.50;;;;;;;5.45;83.63;100771.48;108108;1288;22027;-70
2023/01/30 02:34:34;;;;;;;11.40;6.90;;;;;;;5.45;82.46;100765.21;108151;1287;22032;-71
2023/01/30 02:37:13;;;;;;;14.60;8.50;;;;;;;5.49;82.57;100761.79;108108;1288;22065;-73
2023/01/30 02:39:45;;;;;;;11.70;6.70;;;;;;;5.56;82.23;100762.40;108099;1286;22005;-74
2023/01/30 02:42:23;;;;;;;12.00;6.50;;;;;;;5.58;81.27;100764.86;108127;1286;23778;-74
2023/01/30 02:44:58;;;;;;;12.80;7.20;;;;;;;5.60;80.86;100763.33;108016;1287;22002;-70
2023/01/30 02:47:32;;;;;;;12.30;7.10;;;;;;;5.58;79.65;100759.98;108160;1285;22466;-70
2023/01/30 02:50:01;;;;;;;12.10;7.20;;;;;;;5.57;79.39;100756.32;108178;1277;21994;-74
2023/01/30 02:52:27;;;;;;;12.40;6.80;;;;;;;5.54;78.76;100757.66;108123;1286;21988;-71
2023/01/30 02:54:53;;;;;;;12.10;6.70;;;;;;;5.52;78.79;100758.70;108062;1286;21996;-73
2023/01/30 02:57:20;;;;;;;10.80;6.60;;;;;;;5.55;79.27;100753.50;108032;1286;23799;-73
2023/01/30 02:59:48;;;;;;;12.20;6.90;;;;;;;5.56;78.65;100749.16;108136;1286;21996;-70
2023/01/30 03:02:29;;;;;;;11.90;6.10;;;;;;;5.55;77.80;100750.20;108090;1286;21985;-74
2023/01/30 03:05:20;;;;;;;10.00;6.00;;;;;;;5.52;77.44;100747.91;108167;1286;21995;-70
2023/01/30 03:08:08;;;;;;;11.90;6.30;;;;;;;5.49;77.60;100744.40;107419;1286;1007008;-71
2023/01/30 03:10:41;;;;;;;11.20;6.10;;;;;;;5.50;77.63;100749.61;108122;1287;22069;-74
2023/01/30 03:13:36;;;;;;;11.50;6.20;;;;;;;5.52;77.81;100750.85;108132;1287;23797;-71
2023/01/30 03:16:25;;;;;;;11.60;6.30;;;;;;;5.54;77.79;100750.02;108067;1287;21991;-74
2023/01/30 03:18:50;;;;;;;10.50;6.10;;;;;;;5.56;77.25;100751.95;107281;1287;1003051;-71
2023/01/30 03:21:16;;;;;;;11.80;6.80;;;;;;;5.57;77.45;100751.97;108064;1287;21989;-74
2023/01/30 03:23:46;;;;;;;13.10;6.30;;;;;;;5.59;77.37;100752.69;108048;1287;21988;-74
2023/01/30 03:26:17;;;;;;;15.90;6.90;;;;;;;5.62;77.31;100754.84;108036;1286;22294;-75
2023/01/30 03:28:44;;;;;;;11.80;6.30;;;;;;;5.63;77.49;100754.50;107856;1287;21996;-71
2023/01/30 03:31:10;;;;;;;11.10;6.60;;;;;;;5.65;77.46;100751.23;108022;1287;21993;-71
2023/01/30 03:33:36;;;;;;;10.50;6.20;;;;;;;5.67;76.70;100752.46;108111;1287;24074;-70
2023/01/30 03:36:01;;;;;;;9.80;5.90;;;;;;;5.68;76.96;100753.36;108145;1287;22010;-71
2023/01/30 03:38:28;;;;;;;10.20;5.60;;;;;;;5.64;76.26;100752.27;108154;1287;21988;-71
2023/01/30 03:40:54;;;;;;;12.60;5.90;;;;;;;5.68;76.63;100748.66;108132;1287;22747;-71
2023/01/30 03:43:20;;;;;;;12.60;5.80;;;;;;;5.76;76.95;100748.58;108115;1287;22023;-72
2023/01/30 03:45:47;;;;;;;11.50;6.10;;;;;;;5.81;77.03;100743.95;108128;1287;22027;-71
2023/01/30 03:48:13;;;;;;;9.60;5.80;;;;;;;5.86;77.07;100746.98;108103;1287;21985;-75
2023/01/30 03:50:39;;;;;;;13.60;6.10;;;;;;;5.89;76.95;100747.71;108044;1287;21987;-75
2023/01/30 03:53:05;;;;;;;10.50;5.50;;;;;;;5.90;76.63;100748.94;108112;1286;23694;-76
2023/01/30 03:55:31;;;;;;;9.70;5.20;;;;;;;5.85;75.70;100749.05;108037;1287;23641;-75
2023/01/30 03:57:58;;;;;;;10.60;5.40;;;;;;;5.79;75.20;100745.48;108084;1283;21996;-75
2023/01/30 04:00:23;;;;;;;9.00;5.00;;;;;;;5.80;74.66;100749.15;108075;1287;21989;-71
2023/01/30 04:02:49;;;;;;;11.80;6.50;;;;;;;5.83;74.08;100746.92;108021;1287;21982;-71
2023/01/30 04:05:15;;;;;;;12.40;6.00;;;;;;;5.79;74.68;100744.42;108051;1287;22074;-70
2023/01/30 04:07:42;;;;;;;11.70;5.60;;;;;;;5.77;74.13;100741.63;108090;1287;21991;-71
2023/01/30 04:10:09;;;;;;;9.80;5.70;;;;;;;5.70;73.59;100741.36;108133;1287;21989;-76
2023/01/30 04:12:35;;;;;;;9.90;5.40;;;;;;;5.66;73.45;100745.48;108046;1285;21986;-75
2023/01/30 04:15:01;;;;;;;9.80;5.90;;;;;;;5.64;73.07;100740.75;108083;1287;23676;-75
2023/01/30 04:17:27;;;;;;;9.30;5.10;;;;;;;5.63;73.42;100742.65;108083;1287;22046;-73
2023/01/30 04:19:52;;;;;;;9.10;5.10;;;;;;;5.62;73.50;100743.52;107277;1287;1002239;-74
2023/01/30 04:22:19;;;;;;;9.70;5.30;;;;;;;5.60;73.37;100743.14;107290;1287;1002222;-69
2023/01/30 04:24:48;;;;;;;9.50;5.60;;;;;;;5.62;73.76;100740.23;108058;1287;21984;-68
2023/01/30 04:27:14;;;;;;;11.00;5.90;;;;;;;5.60;72.92;100742.80;108025;1287;22001;-68
2023/01/30 04:29:41;;;;;;;13.30;6.70;;;;;;;5.54;72.63;100742.70;108016;1287;22128;-73
2023/01/30 04:32:07;;;;;;;12.90;6.70;;;;;;;5.51;72.28;100742.67;108291;1283;22012;-72
2023/01/30 04:34:34;;;;;;;11.80;6.10;;;;;;;5.48;72.38;100743.16;108210;1287;22024;-74
2023/01/30 04:44:12;;;;;;;12.00;6.20;;;;;;;5.32;72.32;100744.46;107342;1287;1002397;-71
2023/01/30 04:46:38;;;;;;;13.80;6.80;;;;;;;5.28;72.58;100743.73;108095;1287;21999;-71
2023/01/30 04:49:03;;;;;;;10.30;5.50;;;;;;;5.27;72.14;100745.27;108074;1283;22024;-71
2023/01/30 04:51:29;;;;;;;10.10;6.10;;;;;;;5.17;71.59;100744.23;108052;1287;22070;-74
2023/01/30 04:53:55;;;;;;;11.20;6.50;;;;;;;5.14;71.31;100750.81;108071;1287;21987;-75
2023/01/30 04:56:22;;;;;;;10.80;5.80;;;;;;;5.16;70.77;100753.30;108051;1287;21993;-75
2023/01/30 04:58:47;;;;;;;11.80;6.40;;;;;;;5.16;71.05;100751.89;108123;1288;22002;-73
2023/01/30 05:01:25;;;;;;;11.60;6.10;;;;;;;5.19;71.31;100753.67;108075;1288;22075;-70
2023/01/30 05:03:51;;;;;;;11.40;5.50;;;;;;;5.25;72.12;100754.11;108106;1288;22021;-71
2023/01/30 05:06:18;;;;;;;11.60;6.00;;;;;;;5.30;72.89;100755.94;108095;1288;22032;-73
2023/01/30 05:08:52;;;;;;;12.70;6.80;;;;;;;5.33;72.40;100760.51;108091;1288;23601;-73
2023/01/30 05:11:18;;;;;;;12.90;5.80;;;;;;;5.34;72.51;100761.55;108075;1288;22029;-73
2023/01/30 05:13:45;;;;;;;10.50;5.60;;;;;;;5.35;72.03;100757.91;108107;1288;22026;-70
2023/01/30 05:16:13;;;;;;;11.20;5.40;;;;;;;5.31;71.56;100759.07;108090;1286;21986;-70
2023/01/30 05:18:39;;;;;;;11.90;6.20;;;;;;;5.30;71.35;100757.15;108107;1287;23712;-73
2023/01/30 05:21:16;;;;;;;11.00;5.80;;;;;;;5.33;71.58;100755.98;108058;1288;22038;-70
2023/01/30 05:23:43;;;;;;;12.90;5.40;;;;;;;5.34;70.91;100758.42;108103;1288;23759;-69
2023/01/30 05:26:09;;;;;;;11.30;5.90;;;;;;;5.32;70.18;100758.73;108092;1287;23815;-70
2023/01/30 05:28:35;;;;;;;12.50;5.80;;;;;;;5.27;70.03;100756.06;108007;1286;22000;-73
2023/01/30 05:31:06;;;;;;;12.20;7.10;;;;;;;5.23;70.09;100756.88;108069;1286;22110;-72
2023/01/30 05:33:32;;;;;;;12.40;6.70;;;;;;;5.19;70.63;100759.42;108106;1287;23291;-69
2023/01/30 05:35:58;;;;;;;9.80;5.10;;;;;;;5.20;70.90;100762.55;107267;1287;1002336;-69
2023/01/30 05:38:24;;;;;;;12.20;5.50;;;;;;;5.26;72.03;100761.79;108034;1287;22899;-69
2023/01/30 05:41:05;;;;;;;11.00;6.00;;;;;;;5.34;72.32;100760.68;108079;1286;22024;-73
2023/01/30 05:43:31;;;;;;;11.80;6.00;;;;;;;5.40;72.05;100756.79;108035;1287;24393;-73
2023/01/30 05:46:02;;;;;;;11.70;5.90;;;;;;;5.44;72.15;100754.05;108042;1286;21987;-69
2023/01/30 05:48:29;;;;;;;12.90;6.60;;;;;;;5.44;72.30;100752.67;108091;1287;22081;-69
2023/01/30 05:50:56;;;;;;;11.90;5.20;;;;;;;5.45;71.87;100752.86;107967;1287;21989;-68
2023/01/30 05:53:26;;;;;;;11.70;5.50;;;;;;;5.46;72.26;100752.87;108037;1287;23048;-69
2023/01/30 05:55:56;;;;;;;12.80;5.90;;;;;;;5.51;72.60;100750.68;108036;1287;23822;-73
2023/01/30 05:58:22;;;;;;;12.90;6.10;;;;;;;5.57;72.54;100750.75;108010;1287;21994;-72
2023/01/30 06:00:49;;;;;;;16.20;7.00;;;;;;;5.61;72.48;100746.45;108009;1283;21984;-69
2023/01/30 06:03:15;;;;;;;14.50;7.20;;;;;;;5.63;72.36;100742.66;108176;1287;21992;-73
2023/01/30 06:05:41;;;;;;;15.00;6.90;;;;;;;5.68;72.50;100741.85;108123;1287;23736;-68
2023/01/30 06:08:08;;;;;;;16.20;8.10;;;;;;;5.71;72.48;100741.71;108070;1287;21993;-69
2023/01/30 06:10:34;;;;;;;12.90;6.70;;;;;;;5.71;72.35;100739.46;107385;1287;1002555;-69
2023/01/30 09:40:59;;;;;;;15.10;9.10;;;;;;;2.30;100.00;100590.92;107185;1283;1003155;-70
2023/01/30 09:43:38;;;;;;;15.00;9.00;;;;;;;5.70;94.04;100566.02;108346;1285;21979;-70
2023/01/30 09:46:21;;;;;;;12.10;7.20;;;;;;;6.06;86.19;100564.84;108350;1285;21999;-70
2023/01/30 09:49:19;;;;;;;12.50;7.60;;;;;;;6.29;83.48;100557.37;108410;1284;22043;-69
2023/01/30 09:51:55;;;;;;;10.50;6.80;;;;;;;6.54;82.49;100554.60;108454;1285;23643;-71
2023/01/30 09:54:28;;;;;;;14.30;8.20;;;;;;;6.69;80.83;100547.55;108186;1279;23942;-71
2023/01/30 09:57:08;;;;;;;13.60;7.10;;;;;;;6.77;79.48;100541.50;108441;1280;23252;-71
2023/01/30 09:59:50;;;;;;;11.70;7.10;;;;;;;6.83;78.77;100537.52;108366;1279;21985;-70
2023/01/30 10:02:40;;;;;;;10.90;7.00;;;;;;;6.93;78.55;100527.45;107509;1281;1003309;-71
2023/01/30 10:05:07;;;;;;;12.10;7.00;;;;;;;7.02;78.84;100514.41;108360;1282;21975;-70
2023/01/30 10:07:46;;;;;;;10.80;6.40;;;;;;;7.15;78.78;100514.29;107527;1282;1002638;-71
2023/01/30 10:10:17;;;;;;;12.20;6.70;;;;;;;7.22;76.11;100507.69;108286;1282;21939;-71
2023/01/30 10:12:56;;;;;;;10.90;6.80;;;;;;;7.19;72.75;100504.35;108244;1277;23055;-71
2023/01/30 10:15:34;;;;;;;10.20;6.60;;;;;;;7.12;71.64;100499.45;107573;1272;1002375;-70
2023/01/30 10:18:39;;;;;;;10.70;6.90;;;;;;;7.11;72.20;100497.16;108258;1282;23068;-70
2023/01/30 10:21:11;;;;;;;11.40;7.40;;;;;;;7.08;70.91;100493.14;107482;1279;1002387;-71
2023/01/30 10:23:51;;;;;;;13.00;7.70;;;;;;;7.04;69.73;100487.03;108380;1282;21987;-71
2023/01/30 10:26:19;;;;;;;11.90;8.10;;;;;;;7.00;70.64;100481.60;108318;1282;22018;-70
2023/01/30 10:29:12;;;;;;;12.40;7.60;;;;;;;7.03;71.61;100477.42;108267;1282;21986;-70
2023/01/30 10:31:51;;;;;;;11.70;7.00;;;;;;;7.07;70.71;100473.09;108309;1279;24383;-68
2023/01/30 10:34:20;;;;;;;;;;;;;;;7.06;69.18;100464.70;108430;1282;23696;-69
2023/01/30 10:37:00;;;;;;;11.10;7.30;;;;;;;7.03;69.61;100457.54;108305;1282;21980;-69
2023/01/30 10:40:13;;;;;;;11.40;7.60;;;;;;;7.04;70.86;100448.29;108263;1281;21982;-69
2023/01/30 10:42:54;;;;;;;11.90;8.00;;;;;;;6.99;66.81;100437.98;107794;1285;23128;-69
2023/01/30 10:45:28;;;;;;;12.10;7.10;;;;;;;6.94;67.13;100436.75;107680;1289;21987;-70
2023/01/30 10:48:22;;;;;;;9.10;6.50;;;;;;;6.88;66.47;100438.29;108152;1282;22066;-69
2023/01/30 10:51:12;;;;;;;10.30;6.70;;;;;;;6.83;67.35;100433.02;108198;1282;22445;-69
2023/01/30 10:53:53;;;;;;;11.50;6.80;;;;;;;6.88;67.66;100422.59;108359;1282;21984;-69
2023/01/30 10:56:31;;;;;;;50.00;26.50;;;;;;;6.94;67.87;100413.89;107538;1282;1002527;-70
2023/01/30 10:59:21;;;;;;;16.20;9.50;;;;;;;7.02;68.85;100409.20;107504;1282;1003159;-69
2023/01/30 11:02:15;;;;;;;16.60;9.70;;;;;;;7.08;67.46;100404.15;108269;1283;21979;-69
2023/01/30 11:04:51;;;;;;;10.90;7.10;;;;;;;7.11;68.07;100402.58;108152;1282;22281;-69
2023/01/30 11:07:17;;;;;;;9.80;6.60;;;;;;;7.14;67.49;100394.39;107463;1282;1003323;-69
2023/01/30 11:09:45;;;;;;;9.20;5.50;;;;;;;7.13;66.87;100387.77;107343;1283;1002804;-69
2023/01/30 11:12:12;;;;;;;9.40;5.70;;;;;;;7.14;67.67;100382.70;108294;1282;21990;-70
2023/01/30 11:14:58;;;;;;;8.40;5.50;;;;;;;7.18;68.05;100376.26;108401;1282;23675;-70
2023/01/30 11:17:31;;;;;;;10.00;5.80;;;;;;;7.18;66.96;100373.46;108273;1272;21996;-69
2023/01/30 11:20:01;;;;;;;12.20;7.90;;;;;;;7.19;67.01;100368.94;108160;1283;24319;-69
2023/01/30 11:22:27;;;;;;;10.30;6.30;;;;;;;7.21;67.14;100362.81;107565;1283;1002340;-69
2023/01/30 11:25:08;;;;;;;8.30;5.10;;;;;;;7.19;65.99;100355.84;107424;1282;1006922;-70
2023/01/30 11:27:35;;;;;;;8.70;5.10;;;;;;;7.13;65.59;100348.84;108040;1283;23609;-69
2023/01/30 11:30:16;;;;;;;79.80;35.20;;;;;;;7.11;65.90;100346.23;108242;1282;21981;-68
2023/01/30 11:32:46;;;;;;;35.30;17.20;;;;;;;7.12;65.93;100340.46;108227;1283;21991;-70
2023/01/30 11:35:12;;;;;;;44.80;15.20;;;;;;;7.18;65.15;100339.77;108295;1283;22026;-70
2023/01/30 11:37:43;;;;;;;13.80;6.60;;;;;;;7.18;63.78;100333.84;108219;1282;21980;-69
2023/01/30 11:40:28;;;;;;;14.00;6.40;;;;;;;7.17;64.34;100332.27;108277;1282;21992;-69
2023/01/30 11:43:01;;;;;;;8.60;4.70;;;;;;;7.09;65.52;100329.64;107521;1282;1002325;-70
2023/01/30 11:45:29;;;;;;;7.20;4.40;;;;;;;6.93;64.09;100327.70;108269;1282;22051;-70
2023/01/30 11:48:02;;;;;;;8.10;4.30;;;;;;;6.89;63.20;100322.98;108170;1283;23740;-70
2023/01/30 11:50:38;;;;;;;6.90;3.80;;;;;;;6.97;63.26;100321.25;108251;1282;21983;-69
2023/01/30 11:53:06;;;;;;;8.10;5.00;;;;;;;6.95;63.01;100315.50;108232;1283;21995;-69
2023/01/30 11:55:36;;;;;;;7.90;4.40;;;;;;;6.95;63.86;100311.32;107396;1283;1002569;-70
2023/01/30 11:58:06;;;;;;;8.00;4.80;;;;;;;7.04;65.39;100309.58;108325;1283;23770;-69
2023/01/30 12:00:38;;;;;;;7.50;4.00;;;;;;;6.95;65.88;100307.12;108271;1282;21994;-69
2023/01/30 12:03:05;;;;;;;7.90;4.40;;;;;;;6.92;67.37;100305.02;108244;1273;22011;-69
2023/01/30 12:05:33;;;;;;;8.20;4.50;;;;;;;6.96;67.58;100302.77;108291;1277;22101;-69
2023/01/30 12:08:13;;;;;;;6.40;3.70;;;;;;;6.95;66.43;100299.80;108271;1282;23754;-68
2023/01/30 12:10:41;;;;;;;7.40;4.40;;;;;;;6.96;66.05;100295.61;108342;1282;22026;-69
2023/01/30 12:13:20;;;;;;;6.30;4.00;;;;;;;6.92;65.17;100294.22;108252;1283;21988;-68
2023/01/30 12:15:51;;;;;;;7.10;4.20;;;;;;;6.86;64.92;100294.20;107391;1275;1002646;-70
2023/01/30 12:18:35;;;;;;;8.10;4.90;;;;;;;6.81;64.28;100291.59;107387;1281;1003429;-70
2023/01/30 12:21:07;;;;;;;18.80;8.40;;;;;;;6.80;63.93;100292.12;108271;1283;21988;-70
2023/01/30 12:24:00;;;;;;;8.60;5.70;;;;;;;6.80;63.86;100289.84;108117;1283;22000;-69
2023/01/30 12:26:45;;;;;;;11.00;6.40;;;;;;;6.77;61.94;100285.82;108012;1283;22025;-70
2023/01/30 12:29:44;;;;;;;10.10;6.30;;;;;;;6.64;59.33;100281.42;107542;1283;1002990;-71
2023/01/30 12:32:18;;;;;;;11.90;6.50;;;;;;;6.66;62.28;100274.29;108192;1282;23816;-71
2023/01/30 12:34:47;;;;;;;22.00;10.90;;;;;;;6.69;62.39;100274.29;108122;1283;23245;-69
2023/01/30 12:37:27;;;;;;;13.80;7.80;;;;;;;6.69;61.59;100269.41;108293;1283;22071;-69
2023/01/30 12:40:15;;;;;;;176.40;73.20;;;;;;;6.66;61.12;100266.61;108428;1282;21992;-69
2023/01/30 12:42:41;;;;;;;37.70;19.20;;;;;;;6.60;61.24;100264.70;108359;1282;21998;-69
2023/01/30 12:45:26;;;;;;;38.60;18.90;;;;;;;6.58;61.71;100262.77;108056;1282;21990;-68
2023/01/30 12:47:56;;;;;;;27.70;15.50;;;;;;;6.61;62.37;100260.86;108255;1283;21985;-69
2023/01/30 12:51:09;;;;;;;27.50;15.30;;;;;;;6.58;62.86;100255.80;108227;1283;21986;-70
2023/01/30 12:53:41;;;;;;;26.30;13.70;;;;;;;6.64;62.50;100251.77;108260;1283;21990;-69
2023/01/30 12:56:28;;;;;;;43.80;20.40;;;;;;;6.70;63.13;100251.45;108276;1273;21996;-70
2023/01/30 12:59:09;;;;;;;44.00;19.60;;;;;;;6.73;62.85;100248.15;108185;1283;22110;-69
2023/01/30 13:02:23;;;;;;;30.50;14.80;;;;;;;6.76;62.03;100244.14;108129;1283;21982;-69
2023/01/30 13:05:13;;;;;;;43.50;19.60;;;;;;;6.74;62.46;100243.09;107898;1288;21988;-71
2023/01/30 13:07:52;;;;;;;37.30;18.60;;;;;;;6.72;62.08;100239.25;107984;1288;22007;-70
2023/01/30 13:10:35;;;;;;;41.00;19.30;;;;;;;6.68;61.86;100237.84;108173;1283;23681;-69
2023/01/30 13:13:10;;;;;;;47.20;21.20;;;;;;;6.66;62.23;100236.79;107524;1283;1002826;-71
2023/01/30 13:15:37;;;;;;;36.60;17.10;;;;;;;6.71;62.50;100231.40;108229;1283;22794;-71
2023/01/30 13:18:31;;;;;;;35.80;20.20;;;;;;;6.81;62.70;100225.66;108216;1283;22990;-71
2023/01/30 13:21:08;;;;;;;110.80;53.10;;;;;;;6.93;62.39;100220.77;108304;1280;21992;-69
2023/01/30 13:23:56;;;;;;;274.50;114.60;;;;;;;7.00;62.41;100212.57;108323;1283;22028;-69
2023/01/30 13:26:26;;;;;;;157.00;72.90;;;;;;;7.05;61.88;100212.92;108302;1280;21993;-70
2023/01/30 13:28:56;;;;;;;261.00;117.80;;;;;;;7.03;61.29;100212.58;107506;1283;1002401;-71
2023/01/30 13:31:23;;;;;;;103.10;46.60;;;;;;;6.98;61.09;100207.17;107513;1283;1002222;-70
2023/01/30 13:33:51;;;;;;;49.50;24.90;;;;;;;6.98;61.20;100202.46;108238;1277;22026;-70
2023/01/30 13:36:20;;;;;;;31.00;17.90;;;;;;;6.94;61.39;100196.17;108219;1283;22163;-69
2023/01/30 13:39:07;;;;;;;24.70;15.10;;;;;;;6.94;61.74;100194.60;108262;1277;22005;-69
2023/01/30 13:41:36;;;;;;;21.40;12.90;;;;;;;6.91;61.42;100193.39;108373;1280;21986;-71
2023/01/30 13:44:06;;;;;;;19.90;12.00;;;;;;;6.88;61.29;100188.15;108435;1271;21986;-70
2023/01/30 13:46:31;;;;;;;37.40;18.30;;;;;;;6.82;60.62;100183.79;108393;1283;22170;-70
2023/01/30 13:49:17;;;;;;;30.00;16.50;;;;;;;6.80;61.20;100184.48;108295;1283;22002;-70
2023/01/30 13:51:47;;;;;;;27.40;15.20;;;;;;;6.78;60.88;100178.04;108425;1279;22000;-68
2023/01/30 13:54:16;;;;;;;29.60;16.50;;;;;;;6.73;60.59;100178.21;108392;1283;23759;-69
2023/01/30 13:57:12;;;;;;;29.20;16.70;;;;;;;6.68;60.39;100175.77;108349;1283;23937;-69
2023/01/30 14:00:06;;;;;;;34.80;18.00;;;;;;;6.59;60.10;100174.89;108302;1280;21987;-69
2023/01/30 14:02:32;;;;;;;33.20;17.10;;;;;;;6.48;59.68;100177.67;108409;1282;22057;-69
2023/01/30 14:04:58;;;;;;;15.10;8.60;;;;;;;6.43;60.15;100174.18;108174;1283;22050;-71
2023/01/30 20:06:14;;;;;;;36.40;16.60;;;;;;;0.93;96.05;99948.93;106914;1291;1002381;-72
2023/01/30 20:08:41;;;;;;;33.10;16.80;;;;;;;1.48;89.77;99944.10;107574;1293;21990;-67
2023/01/30 20:11:08;;;;;;;40.30;20.80;;;;;;;1.79;86.63;99943.42;106825;1294;1003998;-71
2023/01/30 20:13:35;;;;;;;39.90;18.50;;;;;;;2.00;84.80;99938.06;107400;1294;22014;-72
2023/01/30 20:16:04;;;;;;;36.50;18.10;;;;;;;2.18;83.47;99934.52;107396;1292;391776;-67
2023/01/30 20:18:32;;;;;;;29.20;16.70;;;;;;;2.34;82.42;99933.88;107739;1292;22034;-73
2023/01/30 20:21:06;;;;;;;24.20;13.50;;;;;;;2.47;81.52;99924.01;107742;1292;23741;-73
2023/01/30 20:23:37;;;;;;;23.40;12.10;;;;;;;2.59;80.62;99922.79;107742;1292;22058;-73
2023/01/30 20:26:05;;;;;;;20.90;11.50;;;;;;;2.75;79.78;99917.60;107740;1292;21994;-73
2023/01/30 20:28:31;;;;;;;18.80;10.60;;;;;;;2.89;78.88;99915.85;107757;1290;21992;-73
2023/01/30 20:30:58;;;;;;;20.30;9.80;;;;;;;3.01;78.53;99914.79;107726;1290;22035;-73
2023/01/30 20:33:23;;;;;;;21.10;10.90;;;;;;;3.10;77.80;99905.69;107770;1290;23214;-73
2023/01/30 20:35:49;;;;;;;22.30;11.60;;;;;;;3.21;77.60;99901.80;107645;1290;21994;-67
2023/01/30 20:38:16;;;;;;;26.10;14.00;;;;;;;3.25;76.79;99900.30;107794;1290;22052;-74
2023/01/30 20:40:42;;;;;;;24.20;12.50;;;;;;;3.32;76.52;99896.89;107785;1290;23663;-74
2023/01/30 20:43:08;;;;;;;19.40;10.20;;;;;;;3.37;76.29;99890.52;107831;1290;23761;-67
2023/01/30 20:45:34;;;;;;;21.60;11.40;;;;;;;3.45;76.44;99888.52;107762;1290;23113;-74
2023/01/30 20:47:59;;;;;;;19.70;10.50;;;;;;;3.51;76.03;99888.58;107322;1288;1002486;-67
2023/01/30 20:50:26;;;;;;;26.70;13.80;;;;;;;3.61;76.25;99884.30;108005;1288;23613;-74
2023/01/30 20:52:53;;;;;;;55.20;27.00;;;;;;;3.63;75.83;99885.90;108031;1288;21992;-67
2023/01/30 20:55:19;;;;;;;72.00;34.60;;;;;;;3.64;75.86;99883.82;108045;1288;21984;-74
2023/01/30 20:57:45;;;;;;;51.40;28.50;;;;;;;3.74;75.57;99879.02;108035;1288;24369;-74
2023/01/30 21:00:11;;;;;;;33.70;20.50;;;;;;;3.79;75.48;99883.75;107237;1288;1002393;-67
2023/01/30 21:02:37;;;;;;;28.60;16.90;;;;;;;3.86;75.42;99885.71;108016;1287;22065;-67
2023/01/30 21:05:03;;;;;;;23.20;11.70;;;;;;;3.93;75.42;99887.16;107247;1275;1002436;-67
2023/01/30 21:07:34;;;;;;;24.80;12.10;;;;;;;4.00;75.74;99885.46;107308;1288;1003656;-74
2023/01/30 21:10:00;;;;;;;20.00;11.20;;;;;;;4.08;75.67;99883.95;108082;1288;22249;-73
2023/01/30 21:12:28;;;;;;;19.60;10.50;;;;;;;4.14;75.51;99877.56;107863;1288;23649;-67
2023/01/30 21:14:54;;;;;;;17.40;9.20;;;;;;;4.19;75.28;99873.41;107917;1288;22012;-73
2023/01/30 21:17:20;;;;;;;19.10;10.10;;;;;;;4.19;75.05;99875.33;107866;1288;21992;-73
2023/01/30 21:19:46;;;;;;;17.50;9.60;;;;;;;4.24;74.81;99878.30;107853;1288;22000;-74
2023/01/30 21:22:12;;;;;;;16.30;9.20;;;;;;;4.21;74.88;99877.26;107886;1288;23147;-73
2023/01/30 21:24:38;;;;;;;18.10;8.70;;;;;;;4.26;75.09;99875.89;107837;1288;21992;-73
2023/01/30 21:27:04;;;;;;;14.20;8.60;;;;;;;4.32;75.10;99870.54;107849;1285;21992;-67
2023/01/30 21:29:31;;;;;;;16.20;8.90;;;;;;;4.37;75.22;99866.56;107859;1288;24922;-67
2023/01/30 21:31:57;;;;;;;17.90;9.70;;;;;;;4.45;75.28;99867.29;107843;1289;21990;-73
2023/01/30 21:34:23;;;;;;;15.80;8.80;;;;;;;4.50;75.02;99869.39;107118;1289;1002728;-73
2023/01/30 21:45:05;;;;;;;17.70;9.10;;;;;;;4.73;75.26;99860.11;107818;1289;22003;-67
2023/01/30 21:47:32;;;;;;;15.50;8.70;;;;;;;4.76;75.09;99859.25;107836;1289;22112;-73
2023/01/30 21:49:58;;;;;;;16.40;9.50;;;;;;;4.81;75.25;99857.87;107940;1289;21984;-74
2023/01/30 21:52:24;;;;;;;16.90;10.20;;;;;;;4.77;75.00;99854.72;108008;1288;21992;-67
2023/01/30 21:54:50;;;;;;;15.60;8.60;;;;;;;4.79;75.30;99852.14;107975;1288;21999;-68
2023/01/30 21:57:16;;;;;;;14.80;9.40;;;;;;;4.86;75.31;99846.23;108068;1288;21997;-68
2023/01/30 21:59:41;;;;;;;19.20;9.30;;;;;;;4.86;75.18;99838.58;108030;1276;23664;-67
2023/01/30 22:02:10;;;;;;;16.30;9.60;;;;;;;4.89;75.10;99831.81;107979;1288;23755;-73
2023/01/30 22:04:37;;;;;;;17.20;9.50;;;;;;;4.88;74.92;99827.10;108107;1288;21995;-73
2023/01/30 22:07:02;;;;;;;18.60;10.10;;;;;;;4.88;74.72;99822.59;107799;1289;23718;-73
2023/01/30 22:09:29;;;;;;;17.90;9.80;;;;;;;4.95;74.98;99821.55;107878;1288;21989;-74
2023/01/30 22:11:56;;;;;;;17.60;9.70;;;;;;;4.96;75.29;99821.56;108014;1288;21990;-67
2023/01/30 22:14:22;;;;;;;19.00;10.30;;;;;;;5.02;75.25;99822.27;108013;1288;23663;-67
2023/01/30 22:16:48;;;;;;;18.60;10.70;;;;;;;5.03;74.94;99816.36;108104;1287;21998;-67
2023/01/30 22:19:15;;;;;;;17.30;10.50;;;;;;;5.08;75.24;99811.14;108187;1287;22445;-73
2023/01/30 22:21:41;;;;;;;20.60;10.80;;;;;;;5.11;75.08;99807.33;108175;1287;21991;-73
2023/01/30 22:24:07;;;;;;;18.40;9.70;;;;;;;5.13;74.82;99807.48;107395;1287;1002915;-68
2023/01/30 22:26:33;;;;;;;17.70;10.40;;;;;;;5.14;74.74;99801.41;108119;1287;22026;-72
2023/01/30 22:29:01;;;;;;;18.20;9.70;;;;;;;5.16;74.91;99798.46;107402;1287;1002924;-67
2023/01/30 22:31:29;;;;;;;19.50;11.60;;;;;;;5.15;74.78;99799.16;108245;1287;23769;-73
2023/01/30 22:33:56;;;;;;;25.70;14.60;;;;;;;5.18;74.94;99799.85;108210;1287;21989;-67
2023/01/30 22:36:23;;;;;;;32.90;18.70;;;;;;;5.23;75.38;99805.60;108187;1283;21996;-74
2023/01/30 22:38:49;;;;;;;33.90;18.20;;;;;;;5.25;75.39;99807.52;108161;1287;23631;-74
2023/01/30 22:41:17;;;;;;;22.50;12.70;;;;;;;5.25;75.25;99807.86;108134;1287;22005;-67
2023/01/30 22:43:51;;;;;;;30.80;17.00;;;;;;;5.26;74.91;99811.34;108135;1287;22020;-66
2023/01/30 22:46:18;;;;;;;100.70;38.90;;;;;;;5.25;74.78;99807.69;108268;1287;23795;-68
2023/01/30 22:48:45;;;;;;;52.70;25.00;;;;;;;5.25;74.95;99803.51;107447;1287;1003173;-74
2023/01/30 22:51:13;;;;;;;49.50;24.70;;;;;;;5.28;74.98;99795.17;108125;1287;21996;-68
2023/01/30 22:53:43;;;;;;;41.40;21.10;;;;;;;5.31;74.65;99791.17;108098;1287;21990;-74
2023/01/30 22:56:14;;;;;;;32.50;18.40;;;;;;;5.31;74.89;99794.45;108165;1287;21984;-68
